CST,Max TemperatureF,Mean TemperatureF,Min TemperatureF,Max Dew PointF,MeanDew PointF,Min DewpointF,Max Humidity, Mean Humidity, Min Humidity, Max Sea Level PressureIn, Mean Sea Level PressureIn, Min Sea Level PressureIn, Max VisibilityMiles, Mean VisibilityMiles, Min VisibilityMiles, Max Wind SpeedMPH, Mean Wind SpeedMPH, Max Gust SpeedMPH,PrecipitationIn, CloudCover, Events, WindDirDegrees
2012-1-1,30,24,17,30,21,12,100,81,69,29.96,29.74,29.60,10,5,0,26,15,36,0.00,8,,298
2012-1-2,17,14,10,12,6,0,86,73,62,30.35,30.20,29.97,10,5,0,28,17,36,0.00,8,,324
2012-1-3,21,8,-5,9,0,-15,100,63,42,30.31,30.03,29.77,10,10,6,18,7,28,0.00,2,,206
2012-1-4,30,22,15,21,17,7,93,76,63,29.93,29.86,29.76,10,10,10,14,9,,0.00,6,,254
2012-1-5,46,34,21,30,24,18,86,71,50,29.87,29.62,29.38,10,10,10,21,6,24,0.00,1,,212
2012-1-6,44,40,35,32,29,27,75,65,57,29.61,29.52,29.41,10,10,10,24,16,32,0.00,3,,265
2012-1-7,30,27,24,27,17,12,93,71,59,30.10,29.96,29.67,10,9,2,20,11,30,0.00,8,,280
2012-1-8,33,28,24,25,20,16,86,72,55,30.18,30.10,29.93,10,10,10,14,9,24,0.00,5,,236
2012-1-9,42,35,28,28,26,19,93,65,53,29.91,29.75,29.66,10,10,10,22,14,29,0.00,3,,251
2012-1-10,48,34,19,30,26,12,100,75,50,29.90,29.72,29.61,10,10,3,17,4,26,0.00,0,,211
2012-1-11,37,30,23,30,27,19,93,86,75,29.67,29.59,29.54,10,7,1,17,4,25,0.02,7,,320
2012-1-12,23,19,15,19,14,10,93,86,73,29.68,29.65,29.61,10,2,1,15,11,20,0.00,8,,347
2012-1-13,15,12,10,12,8,3,86,82,73,29.94,29.84,29.69,10,7,1,16,8,21,0.00,8,,336
2012-1-14,12,9,6,7,4,-2,85,76,67,30.06,30.00,29.94,10,10,9,8,3,,0.00,8,,150
2012-1-15,30,21,12,23,16,7,93,78,69,30.07,29.94,29.73,10,10,8,21,7,30,0.00,5,,173
2012-1-16,28,26,23,25,21,14,93,79,64,29.89,29.76,29.68,10,10,7,14,9,21,0.00,6,,289
2012-1-17,21,14,6,16,9,0,86,79,67,30.09,29.97,29.87,10,6,1,15,10,21,0.00,8,,331
2012-1-18,19,5,-9,10,-2,-18,100,67,46,30.10,29.84,29.52,10,10,3,16,7,22,0.00,2,,199
2012-1-19,1,-3,-7,-2,-12,-18,85,69,50,30.00,29.87,29.65,10,4,1,22,16,30,0.00,5,,266
2012-1-20,6,-2,-11,-6,-15,-22,100,62,40,30.09,30.06,30.02,10,10,10,12,7,,0.00,0,,225
2012-1-21,17,0,-18,3,-9,-26,100,69,49,30.15,30.09,29.97,10,10,9,12,4,,0.00,2,,183
2012-1-22,28,24,19,21,18,10,86,76,59,29.82,29.66,29.52,10,10,9,17,8,24,0.00,8,,163
2012-1-23,28,24,21,27,23,18,100,90,80,29.53,29.42,29.36,10,4,1,17,6,24,0.00,8,,300
2012-1-24,24,17,8,16,14,3,92,79,59,30.20,30.01,29.70,10,10,2,17,12,25,0.00,5,,280
2012-1-25,35,27,19,27,21,14,93,79,69,30.19,30.09,29.92,10,9,2,12,5,20,0.02,7,,188
2012-1-26,33,32,30,28,26,21,87,80,69,29.79,29.64,29.55,10,8,5,18,12,29,0.01,8,,218
2012-1-27,35,24,14,28,17,7,93,69,35,29.72,29.67,29.61,10,9,1,22,9,31,0.00,3,,237
2012-1-28,23,20,17,19,14,12,86,79,68,29.79,29.71,29.68,10,8,1,23,15,29,0.00,7,,257
2012-1-29,19,8,-4,14,3,-13,85,69,48,30.04,29.95,29.80,10,8,1,18,12,23,0.00,5,,279
2012-1-30,28,10,-7,18,10,-18,100,72,59,30.00,29.78,29.67,10,10,4,14,5,20,0.00,6,,140
2012-1-31,39,34,28,30,25,19,86,73,64,29.72,29.59,29.51,10,10,10,16,6,21,0.00,3,,244